createdAt,value
2024-05-09T00:00:18.188Z,11.45
2024-05-09T00:01:24.032Z,11.41
2024-05-09T00:02:25.880Z,11.41
2024-05-09T00:03:27.674Z,11.37
2024-05-09T00:04:29.475Z,11.39
2024-05-09T00:05:31.326Z,11.37
2024-05-09T00:06:33.087Z,11.36
2024-05-09T00:07:35.804Z,11.37
2024-05-09T00:08:37.794Z,11.36
2024-05-09T00:09:39.515Z,11.39
2024-05-09T00:10:41.708Z,11.37
2024-05-09T00:11:43.583Z,11.39
2024-05-09T00:12:45.399Z,11.37
2024-05-09T00:13:47.508Z,11.36
2024-05-09T00:14:49.374Z,11.35
2024-05-09T00:15:51.106Z,11.34
2024-05-09T00:16:52.869Z,11.31
2024-05-09T00:17:54.852Z,11.31
2024-05-09T00:18:56.710Z,11.28
2024-05-09T00:19:58.622Z,11.28
2024-05-09T00:21:00.488Z,11.26
2024-05-09T00:22:02.372Z,11.26
2024-05-09T00:23:04.365Z,11.29
2024-05-09T00:24:06.237Z,11.30
2024-05-09T00:25:08.807Z,11.34
2024-05-09T00:26:10.603Z,11.35
2024-05-09T00:27:13.444Z,11.39
2024-05-09T00:28:15.214Z,11.42
2024-05-09T00:29:17.038Z,11.44
2024-05-09T00:30:27.761Z,11.46
2024-05-09T00:31:34.428Z,11.49
2024-05-09T00:32:36.435Z,11.49
2024-05-09T00:33:38.435Z,11.52
2024-05-09T00:34:40.263Z,11.54
2024-05-09T00:35:42.106Z,11.57
2024-05-09T00:36:43.828Z,11.58
2024-05-09T00:37:45.581Z,11.58
2024-05-09T00:38:47.611Z,11.54
2024-05-09T00:39:49.341Z,11.54
2024-05-09T00:40:51.127Z,11.53
2024-05-09T00:41:52.883Z,11.55
2024-05-09T00:42:54.662Z,11.58
2024-05-09T00:43:56.485Z,11.60
2024-05-09T00:44:58.253Z,11.62
2024-05-09T00:46:02.003Z,11.64
2024-05-09T00:47:04.219Z,11.65
2024-05-09T00:48:08.580Z,11.68
2024-05-09T00:49:12.796Z,11.67
2024-05-09T00:50:19.411Z,11.66
2024-05-09T00:51:24.801Z,11.65
2024-05-09T00:52:28.345Z,11.62
2024-05-09T00:53:30.610Z,11.62
2024-05-09T00:54:33.135Z,11.60
2024-05-09T00:55:36.504Z,11.57
2024-05-09T00:56:38.432Z,11.55
2024-05-09T00:57:40.365Z,11.55
2024-05-09T00:58:43.057Z,11.55
2024-05-09T00:59:44.905Z,11.55
2024-05-09T01:00:47.007Z,11.52
2024-05-09T01:01:49.525Z,11.53
2024-05-09T01:02:51.420Z,11.53
2024-05-09T01:03:53.507Z,11.55
2024-05-09T01:04:55.687Z,11.56
2024-05-09T01:05:57.686Z,11.57
2024-05-09T01:06:59.511Z,11.57
2024-05-09T01:08:01.441Z,11.56
2024-05-09T01:09:03.539Z,11.56
2024-05-09T01:10:09.063Z,11.55
2024-05-09T01:11:13.614Z,11.57
2024-05-09T01:12:15.482Z,11.58
2024-05-09T01:13:17.274Z,11.60
2024-05-09T01:14:19.054Z,11.62
2024-05-09T01:15:20.793Z,11.63
2024-05-09T01:16:22.552Z,11.65
2024-05-09T01:17:24.601Z,11.66
2024-05-09T01:18:26.753Z,11.65
2024-05-09T01:19:30.458Z,11.63
2024-05-09T01:20:40.843Z,11.63
2024-05-09T01:21:45.357Z,11.63
2024-05-09T01:22:47.569Z,11.64
2024-05-09T01:23:49.332Z,11.66
2024-05-09T01:24:52.054Z,11.64
2024-05-09T01:25:53.890Z,11.60
2024-05-09T01:26:55.663Z,11.60
2024-05-09T01:27:57.359Z,11.56
2024-05-09T01:28:59.104Z,11.56
2024-05-09T01:30:00.888Z,11.56
2024-05-09T01:31:02.588Z,11.55
2024-05-09T01:32:04.985Z,11.54
2024-05-09T01:33:09.283Z,11.56
2024-05-09T01:34:12.678Z,11.57
2024-05-09T01:35:14.411Z,11.59
2024-05-09T01:36:16.168Z,11.60
2024-05-09T01:37:17.899Z,11.56
2024-05-09T01:38:19.908Z,11.56
2024-05-09T01:39:21.692Z,11.54
2024-05-09T01:40:33.304Z,11.51
2024-05-09T01:41:39.495Z,11.51
2024-05-09T01:42:41.307Z,11.46
2024-05-09T01:43:43.053Z,11.42
2024-05-09T01:44:45.115Z,11.43
2024-05-09T01:45:46.828Z,11.44
2024-05-09T01:46:48.615Z,11.44
2024-05-09T01:47:50.524Z,11.46
2024-05-09T01:48:52.563Z,11.45
2024-05-09T01:49:54.373Z,11.41
2024-05-09T01:50:56.224Z,11.37
2024-05-09T01:51:57.984Z,11.35
2024-05-09T01:52:59.745Z,11.32
2024-05-09T01:54:02.739Z,11.34
2024-05-09T01:55:07.426Z,11.35
2024-05-09T01:56:10.437Z,11.34
2024-05-09T01:57:12.187Z,11.35
2024-05-09T01:58:14.062Z,11.36
2024-05-09T01:59:15.847Z,11.33
2024-05-09T02:00:26.252Z,11.34
2024-05-09T02:01:56.004Z,11.33
2024-05-09T02:02:59.602Z,11.31
2024-05-09T02:04:01.814Z,11.26
2024-05-09T02:05:04.067Z,11.25
2024-05-09T02:06:05.914Z,11.18
2024-05-09T02:07:07.681Z,11.14
2024-05-09T02:08:19.549Z,11.14
2024-05-09T02:09:21.563Z,11.06
2024-05-09T02:10:30.169Z,11.08
2024-05-09T02:11:42.643Z,11.10
2024-05-09T02:12:44.461Z,11.09
2024-05-09T02:13:46.240Z,11.09
2024-05-09T02:14:47.975Z,11.03
2024-05-09T02:15:52.406Z,10.99
2024-05-09T02:16:54.281Z,10.97
2024-05-09T02:17:56.352Z,10.97
2024-05-09T02:18:58.409Z,10.97
2024-05-09T02:20:00.294Z,10.98
2024-05-09T02:21:02.170Z,10.99
2024-05-09T02:22:04.094Z,10.99
2024-05-09T02:23:06.626Z,10.89
2024-05-09T02:24:08.737Z,10.91
2024-05-09T02:25:10.465Z,10.94
2024-05-09T02:26:12.236Z,10.96
2024-05-09T02:27:13.972Z,10.97
2024-05-09T02:28:15.712Z,10.93
2024-05-09T02:29:17.511Z,10.88
2024-05-09T02:30:26.396Z,10.86
2024-05-09T02:31:37.649Z,10.82
2024-05-09T02:32:39.520Z,10.81
2024-05-09T02:33:41.463Z,10.82
2024-05-09T02:34:43.240Z,10.79
2024-05-09T02:35:45.028Z,10.79
2024-05-09T02:36:46.807Z,10.80
2024-05-09T02:37:48.578Z,10.81
2024-05-09T02:38:50.305Z,10.81
2024-05-09T02:39:52.034Z,10.79
2024-05-09T02:40:53.822Z,10.78
2024-05-09T02:41:55.564Z,10.79
2024-05-09T02:42:57.262Z,10.77
2024-05-09T02:43:59.052Z,10.76
2024-05-09T02:45:00.789Z,10.70
2024-05-09T02:46:02.500Z,10.69
2024-05-09T02:47:04.420Z,10.68
2024-05-09T02:48:07.172Z,10.67
2024-05-09T02:49:09.130Z,10.60
2024-05-09T02:50:16.036Z,10.57
2024-05-09T02:51:18.015Z,10.51
2024-05-09T02:52:19.730Z,10.47
2024-05-09T02:53:21.528Z,10.43
2024-05-09T02:54:23.261Z,10.38
2024-05-09T02:55:25.572Z,10.39
2024-05-09T02:56:27.382Z,10.40
2024-05-09T02:57:29.125Z,10.38
2024-05-09T02:58:30.833Z,10.34
2024-05-09T02:59:32.580Z,10.32
2024-05-09T03:00:39.070Z,10.28
2024-05-09T03:01:43.374Z,10.22
2024-05-09T03:02:45.307Z,10.19
2024-05-09T03:03:48.450Z,10.19
2024-05-09T03:04:50.356Z,10.13
2024-05-09T03:05:52.135Z,10.15
2024-05-09T03:06:53.916Z,10.14
2024-05-09T03:07:55.643Z,10.13
2024-05-09T03:08:57.365Z,10.09
2024-05-09T03:09:59.118Z,10.08
2024-05-09T03:11:00.852Z,10.07
2024-05-09T03:12:02.688Z,10.05
2024-05-09T03:13:13.808Z,10.02
2024-05-09T03:14:17.271Z,10.01
2024-05-09T03:15:19.032Z,10.02
2024-05-09T03:16:20.729Z,10.02
2024-05-09T03:17:24.074Z,10.02
2024-05-09T03:18:26.064Z,10.03
2024-05-09T03:19:27.872Z,10.03
2024-05-09T03:20:34.217Z,10.03
2024-05-09T03:21:40.855Z,10.04
2024-05-09T03:22:42.558Z,10.03
2024-05-09T03:23:44.370Z,10.01
2024-05-09T03:24:46.171Z,10.00
2024-05-09T03:25:48.054Z,9.96
2024-05-09T03:26:49.809Z,9.92
2024-05-09T03:27:51.514Z,9.88
2024-05-09T03:28:53.366Z,9.86
2024-05-09T03:29:55.103Z,9.84
2024-05-09T03:30:56.810Z,9.82
2024-05-09T03:32:00.648Z,9.79
2024-05-09T03:33:02.784Z,9.80
2024-05-09T03:34:04.888Z,9.76
2024-05-09T03:35:07.207Z,9.76
2024-05-09T03:36:11.213Z,9.70
2024-05-09T03:37:13.821Z,9.68
2024-05-09T03:38:15.757Z,9.68
2024-05-09T03:39:17.629Z,9.69
2024-05-09T03:40:23.699Z,9.67
2024-05-09T03:41:28.204Z,9.66
2024-05-09T03:42:29.938Z,9.65
2024-05-09T03:43:31.716Z,9.65
2024-05-09T03:44:33.474Z,9.62
2024-05-09T03:45:35.241Z,9.57
2024-05-09T03:46:40.780Z,9.46
2024-05-09T03:47:42.775Z,9.43
2024-05-09T03:48:44.937Z,9.42
2024-05-09T03:49:46.977Z,9.39
2024-05-09T03:50:48.832Z,9.29
2024-05-09T03:51:50.585Z,9.30
2024-05-09T03:52:52.365Z,9.29
2024-05-09T03:53:54.183Z,9.27
2024-05-09T03:54:55.909Z,9.25
2024-05-09T03:55:57.747Z,9.22
2024-05-09T03:56:59.520Z,9.19
2024-05-09T03:58:01.265Z,9.19
2024-05-09T03:59:03.060Z,9.16
2024-05-09T04:00:07.488Z,9.17
2024-05-09T04:01:16.663Z,9.19
2024-05-09T04:02:18.588Z,9.20
2024-05-09T04:03:20.660Z,9.16
2024-05-09T04:04:22.726Z,9.17
2024-05-09T04:05:25.654Z,9.14
2024-05-09T04:06:28.091Z,9.16
2024-05-09T04:07:29.804Z,9.13
2024-05-09T04:08:31.558Z,9.08
2024-05-09T04:09:33.299Z,9.05
2024-05-09T04:10:35.599Z,9.05
2024-05-09T04:11:37.686Z,9.08
2024-05-09T04:12:39.656Z,9.09
2024-05-09T04:13:41.416Z,9.05
2024-05-09T04:14:43.177Z,9.03
2024-05-09T04:15:44.947Z,9.03
2024-05-09T04:16:46.704Z,9.02
2024-05-09T04:17:51.599Z,9.02
2024-05-09T04:18:53.656Z,9.02
2024-05-09T04:19:55.626Z,8.99
2024-05-09T04:20:59.499Z,8.99
2024-05-09T04:22:01.734Z,8.92
2024-05-09T04:23:03.565Z,8.94
2024-05-09T04:24:05.536Z,8.94
2024-05-09T04:25:07.346Z,8.98
2024-05-09T04:26:09.309Z,9.00
2024-05-09T04:27:11.030Z,9.02
2024-05-09T04:28:13.230Z,9.02
2024-05-09T04:29:15.065Z,9.01
2024-05-09T04:30:25.525Z,9.01
2024-05-09T04:31:36.432Z,9.04
2024-05-09T04:32:38.269Z,9.00
2024-05-09T04:33:40.194Z,8.96
2024-05-09T04:34:42.018Z,8.98
2024-05-09T04:35:44.168Z,8.91
2024-05-09T04:36:46.197Z,8.92
2024-05-09T04:37:49.342Z,8.93
2024-05-09T04:38:51.055Z,8.95
2024-05-09T04:39:52.758Z,8.96
2024-05-09T04:40:54.527Z,8.96
2024-05-09T04:41:56.455Z,9.00
2024-05-09T04:42:58.154Z,8.96
2024-05-09T04:43:59.907Z,8.93
2024-05-09T04:45:03.464Z,8.94
2024-05-09T04:46:05.195Z,8.91
2024-05-09T04:47:06.981Z,8.94
2024-05-09T04:48:09.126Z,8.93
2024-05-09T04:49:11.283Z,8.92
2024-05-09T04:50:20.790Z,8.99
2024-05-09T04:51:27.174Z,8.99
2024-05-09T04:52:28.906Z,8.99
2024-05-09T04:53:30.753Z,9.00
2024-05-09T04:54:36.288Z,9.01
2024-05-09T04:55:39.415Z,9.03
2024-05-09T04:56:41.730Z,9.04
2024-05-09T04:57:43.465Z,9.09
2024-05-09T04:58:45.236Z,9.17
2024-05-09T04:59:46.976Z,9.20
2024-05-09T05:00:48.747Z,9.24
2024-05-09T05:01:50.594Z,9.26
2024-05-09T05:02:52.457Z,9.26
2024-05-09T05:03:55.969Z,9.28
2024-05-09T05:04:59.390Z,9.27
2024-05-09T05:06:01.319Z,9.29
2024-05-09T05:07:03.187Z,9.29
2024-05-09T05:08:05.868Z,9.31
2024-05-09T05:09:07.642Z,9.31
2024-05-09T05:10:14.878Z,9.34
2024-05-09T05:11:22.907Z,9.35
2024-05-09T05:12:43.457Z,9.36
2024-05-09T05:13:45.227Z,9.40
2024-05-09T05:14:46.980Z,9.43
2024-05-09T05:15:55.258Z,9.48
2024-05-09T05:16:57.046Z,9.57
2024-05-09T05:17:58.934Z,9.62
2024-05-09T05:19:00.918Z,9.66
2024-05-09T05:20:04.092Z,9.71
2024-05-09T05:21:06.523Z,9.81
2024-05-09T05:22:08.363Z,9.89
2024-05-09T05:23:14.905Z,9.96
2024-05-09T05:24:16.776Z,10.01
2024-05-09T05:25:18.498Z,10.06
2024-05-09T05:26:20.620Z,10.11
2024-05-09T05:27:22.385Z,10.12
2024-05-09T05:28:24.287Z,10.15
2024-05-09T05:29:26.049Z,10.20
2024-05-09T05:30:32.788Z,10.24
2024-05-09T05:31:36.280Z,10.25
2024-05-09T05:32:38.227Z,10.27
2024-05-09T05:33:40.101Z,10.28
2024-05-09T05:34:41.865Z,10.32
2024-05-09T05:35:44.200Z,10.33
2024-05-09T05:36:45.929Z,10.35
2024-05-09T05:37:47.667Z,10.37
2024-05-09T05:38:49.598Z,10.39
2024-05-09T05:39:51.422Z,10.41
2024-05-09T05:40:53.209Z,10.46
2024-05-09T05:41:55.327Z,10.51
2024-05-09T05:42:57.046Z,10.55
2024-05-09T05:43:58.832Z,10.65
2024-05-09T05:45:00.665Z,10.74
2024-05-09T05:46:02.393Z,10.81
2024-05-09T05:47:04.354Z,10.88
2024-05-09T05:48:07.851Z,10.93
2024-05-09T05:49:10.155Z,10.97
2024-05-09T05:50:20.920Z,10.99
2024-05-09T05:51:29.330Z,11.10
2024-05-09T05:52:31.098Z,11.18
2024-05-09T05:53:33.160Z,11.24
2024-05-09T05:54:35.021Z,11.34
2024-05-09T05:55:37.774Z,11.41
2024-05-09T05:56:39.598Z,11.45
2024-05-09T05:57:41.365Z,11.54
2024-05-09T05:58:43.302Z,11.66
2024-05-09T05:59:45.059Z,11.78
2024-05-09T06:00:46.873Z,11.84
2024-05-09T06:01:48.651Z,11.91
2024-05-09T06:02:50.502Z,11.99
2024-05-09T06:03:52.404Z,12.04
2024-05-09T06:04:54.371Z,12.12
2024-05-09T06:05:56.297Z,12.17
2024-05-09T06:06:58.100Z,12.24
2024-05-09T06:07:59.953Z,12.38
2024-05-09T06:09:01.785Z,12.53
2024-05-09T06:10:05.325Z,12.59
2024-05-09T06:11:08.947Z,12.65
2024-05-09T06:12:10.915Z,12.67
2024-05-09T06:13:13.633Z,12.69
2024-05-09T06:14:16.035Z,12.85
2024-05-09T06:15:17.757Z,13.08
2024-05-09T06:16:19.459Z,13.20
2024-05-09T06:17:21.415Z,13.31
2024-05-09T06:18:23.463Z,13.46
2024-05-09T06:19:25.489Z,13.55
2024-05-09T06:20:34.966Z,13.57
2024-05-09T06:21:39.112Z,13.61
2024-05-09T06:22:40.820Z,13.64
2024-05-09T06:23:49.417Z,13.65
2024-05-09T06:24:51.132Z,13.66
2024-05-09T06:25:52.892Z,13.64
2024-05-09T06:26:54.614Z,13.70
2024-05-09T06:27:56.363Z,13.71
2024-05-09T06:29:00.399Z,13.69
2024-05-09T06:30:02.166Z,13.64
2024-05-09T06:31:03.985Z,13.58
2024-05-09T06:32:06.176Z,13.55
2024-05-09T06:33:10.096Z,13.50
2024-05-09T06:34:13.482Z,13.55
2024-05-09T06:35:15.424Z,13.64
2024-05-09T06:36:17.197Z,13.72
2024-05-09T06:37:18.923Z,13.90
2024-05-09T06:38:20.748Z,13.94
2024-05-09T06:39:23.705Z,13.96
2024-05-09T06:40:29.858Z,13.95
2024-05-09T06:41:38.138Z,13.95
2024-05-09T06:42:39.857Z,13.92
2024-05-09T06:43:41.992Z,13.89
2024-05-09T06:44:44.275Z,13.88
2024-05-09T06:45:47.935Z,13.89
2024-05-09T06:46:50.389Z,13.88
2024-05-09T06:47:52.362Z,13.90
2024-05-09T06:48:54.444Z,13.94
2024-05-09T06:49:56.328Z,13.97
2024-05-09T06:50:58.079Z,14.01
2024-05-09T06:51:59.851Z,14.04
2024-05-09T06:53:01.605Z,14.05
2024-05-09T06:54:03.486Z,14.10
2024-05-09T06:55:05.571Z,14.10
2024-05-09T06:56:07.736Z,14.13
2024-05-09T06:57:09.507Z,14.17
2024-05-09T06:58:11.232Z,14.21
2024-05-09T06:59:13.002Z,14.21
2024-05-09T07:00:22.806Z,14.20
2024-05-09T07:01:32.369Z,14.21
2024-05-09T07:02:34.229Z,14.22
2024-05-09T07:03:36.214Z,14.22
2024-05-09T07:04:38.191Z,14.24
2024-05-09T07:05:40.066Z,14.30
2024-05-09T07:06:42.299Z,14.36
2024-05-09T07:07:44.023Z,14.47
2024-05-09T07:08:46.959Z,14.65
2024-05-09T07:09:49.678Z,14.69
2024-05-09T07:10:51.432Z,14.78
2024-05-09T07:11:53.309Z,14.81
2024-05-09T07:12:55.122Z,14.91
2024-05-09T07:13:56.873Z,14.93
2024-05-09T07:14:58.594Z,14.96
2024-05-09T07:16:00.383Z,14.99
2024-05-09T07:17:02.323Z,15.00
2024-05-09T07:18:22.212Z,15.00
2024-05-09T07:19:24.131Z,15.04
2024-05-09T07:20:33.811Z,15.18
2024-05-09T07:21:36.805Z,15.24
2024-05-09T07:22:38.502Z,15.32
2024-05-09T07:23:40.978Z,15.34
2024-05-09T07:24:43.512Z,15.37
2024-05-09T07:25:45.404Z,15.41
2024-05-09T07:26:47.287Z,15.40
2024-05-09T07:27:49.318Z,15.41
2024-05-09T07:28:51.021Z,15.43
2024-05-09T07:29:52.799Z,15.41
2024-05-09T07:30:54.503Z,15.51
2024-05-09T07:31:56.434Z,15.54
2024-05-09T07:32:58.527Z,15.57
2024-05-09T07:34:01.195Z,15.62
2024-05-09T07:35:03.051Z,15.63
2024-05-09T07:36:05.165Z,15.63
2024-05-09T07:37:12.653Z,15.78
2024-05-09T07:38:14.728Z,15.88
2024-05-09T07:39:16.561Z,15.88
2024-05-09T07:40:28.430Z,15.92
2024-05-09T07:41:37.370Z,16.02
2024-05-09T07:42:39.243Z,16.04
2024-05-09T07:43:40.955Z,16.05
2024-05-09T07:44:42.881Z,16.07
2024-05-09T07:45:52.096Z,16.02
2024-05-09T07:53:30.159Z,16.03
2024-05-09T07:53:46.566Z,16.11
2024-05-09T07:54:51.782Z,16.25
2024-05-09T07:55:55.528Z,16.41
2024-05-09T07:56:57.836Z,16.47
2024-05-09T07:57:59.678Z,16.48
2024-05-09T07:59:01.442Z,16.46
2024-05-09T08:00:04.533Z,16.45
2024-05-09T08:01:06.734Z,16.40
2024-05-09T08:02:09.128Z,16.38
2024-05-09T08:03:11.127Z,16.38
2024-05-09T08:04:12.984Z,16.42
2024-05-09T08:05:14.990Z,16.55
2024-05-09T08:06:16.766Z,16.66
2024-05-09T08:07:19.968Z,16.80
2024-05-09T08:08:22.289Z,16.86
2024-05-09T08:09:24.020Z,16.89
2024-05-09T08:10:28.994Z,16.93
2024-05-09T08:11:32.336Z,16.94
2024-05-09T08:12:34.110Z,16.93
2024-05-09T08:13:36.075Z,16.94
2024-05-09T08:14:37.794Z,16.95
2024-05-09T08:15:39.570Z,16.99
2024-05-09T08:16:41.324Z,17.02
2024-05-09T08:17:43.143Z,16.98
2024-05-09T08:18:45.037Z,16.95
2024-05-09T08:19:47.815Z,16.94
2024-05-09T08:20:52.141Z,16.95
2024-05-09T08:21:53.861Z,17.02
2024-05-09T08:22:55.600Z,17.00
2024-05-09T08:23:57.404Z,17.01
2024-05-09T08:24:59.139Z,17.16
2024-05-09T08:26:00.854Z,17.18
2024-05-09T08:27:02.571Z,17.24
2024-05-09T08:28:05.112Z,17.33
2024-05-09T08:29:06.865Z,17.33
2024-05-09T08:30:15.425Z,17.37
2024-05-09T08:31:23.328Z,17.43
2024-05-09T08:32:27.313Z,17.46
2024-05-09T08:33:32.258Z,17.44
2024-05-09T08:34:34.118Z,17.43
2024-05-09T08:35:36.322Z,17.43
2024-05-09T08:36:39.841Z,17.46
2024-05-09T08:37:43.621Z,17.46
2024-05-09T08:38:45.474Z,17.43
2024-05-09T08:39:47.230Z,17.45
2024-05-09T08:40:49.491Z,17.44
2024-05-09T08:41:54.173Z,17.47
2024-05-09T08:42:57.365Z,17.45
2024-05-09T08:43:59.104Z,17.46
2024-05-09T08:45:01.749Z,17.46
2024-05-09T08:46:04.956Z,17.51
2024-05-09T08:47:09.240Z,17.54
2024-05-09T08:48:12.448Z,17.58
2024-05-09T08:49:16.063Z,17.61
2024-05-09T08:50:31.429Z,17.65
2024-05-09T08:51:39.393Z,17.66
2024-05-09T08:52:41.128Z,17.66
2024-05-09T08:53:42.951Z,17.62
2024-05-09T08:54:45.124Z,17.64
2024-05-09T08:55:47.389Z,17.65
2024-05-09T08:56:50.102Z,17.62
2024-05-09T08:57:53.142Z,17.62
2024-05-09T08:59:00.137Z,17.63
2024-05-09T09:00:10.102Z,17.62
2024-05-09T09:01:14.793Z,17.62
2024-05-09T09:02:19.239Z,17.66
2024-05-09T09:03:24.875Z,17.64
2024-05-09T09:04:28.491Z,17.68
2024-05-09T09:05:31.260Z,17.73
2024-05-09T09:06:34.691Z,17.75
2024-05-09T09:07:39.651Z,17.84
2024-05-09T09:08:41.492Z,17.92
2024-05-09T09:09:45.655Z,17.92
2024-05-09T09:10:47.894Z,17.99
2024-05-09T09:11:49.810Z,17.97
2024-05-09T09:12:58.681Z,18.03
2024-05-09T09:14:00.471Z,18.20
2024-05-09T09:15:02.176Z,18.24
2024-05-09T09:16:04.453Z,18.28
2024-05-09T09:17:16.037Z,18.33
2024-05-09T09:18:18.686Z,18.42
2024-05-09T09:19:23.250Z,18.36
2024-05-09T09:20:33.754Z,18.15
2024-05-09T09:21:38.332Z,18.01
2024-05-09T09:22:40.087Z,17.99
2024-05-09T09:23:41.811Z,18.01
2024-05-09T09:24:43.554Z,17.93
2024-05-09T09:25:45.590Z,17.86
2024-05-09T09:26:47.313Z,17.90
2024-05-09T09:27:49.084Z,17.98
2024-05-09T09:28:51.628Z,18.07
2024-05-09T09:29:53.357Z,18.08
2024-05-09T09:31:01.502Z,18.10
2024-05-09T09:32:04.764Z,18.16
2024-05-09T09:33:09.000Z,18.18
2024-05-09T09:34:10.952Z,18.21
2024-05-09T09:35:12.812Z,18.18
2024-05-09T09:36:14.532Z,18.17
2024-05-09T09:37:23.124Z,18.20
2024-05-09T09:38:29.387Z,18.18
2024-05-09T09:39:32.591Z,18.22
2024-05-09T09:40:42.896Z,18.24
2024-05-09T09:41:48.829Z,18.20
2024-05-09T09:42:54.539Z,18.15
2024-05-09T09:43:57.679Z,18.26
2024-05-09T09:45:04.836Z,18.25
2024-05-09T09:46:12.256Z,18.25
2024-05-09T09:47:15.832Z,18.30
2024-05-09T09:48:20.053Z,18.29
2024-05-09T09:49:24.331Z,18.36
2024-05-09T09:50:33.386Z,18.47
2024-05-09T09:51:36.947Z,18.62
2024-05-09T09:52:38.941Z,18.57
2024-05-09T09:53:42.497Z,18.54
2024-05-09T09:54:45.596Z,18.51
2024-05-09T09:55:48.305Z,18.49
2024-05-09T09:56:51.443Z,18.49
2024-05-09T09:57:56.171Z,18.45
2024-05-09T09:58:59.319Z,18.46
2024-05-09T10:00:01.192Z,18.44
2024-05-09T10:01:03.153Z,18.47
2024-05-09T10:02:05.417Z,18.55
2024-05-09T10:03:07.310Z,18.61
2024-05-09T10:04:10.460Z,18.66
2024-05-09T10:05:12.645Z,18.77
2024-05-09T10:06:15.580Z,18.80
2024-05-09T10:07:19.204Z,18.84
2024-05-09T10:08:23.516Z,18.83
2024-05-09T10:09:25.925Z,18.91
2024-05-09T10:10:32.391Z,18.91
2024-05-09T10:11:39.766Z,18.91
2024-05-09T10:13:07.889Z,18.79
2024-05-09T10:14:10.244Z,18.73
2024-05-09T10:15:12.045Z,18.77
2024-05-09T10:16:21.794Z,18.76
2024-05-09T10:17:23.804Z,18.64
2024-05-09T10:18:36.401Z,18.69
2024-05-09T10:19:38.486Z,18.74
2024-05-09T10:20:44.770Z,18.85
2024-05-09T10:21:46.887Z,18.88
2024-05-09T10:22:50.491Z,18.81
2024-05-09T10:24:05.895Z,18.73
2024-05-09T10:25:07.939Z,18.79
2024-05-09T10:26:09.718Z,18.86
2024-05-09T10:27:11.457Z,18.91
2024-05-09T10:28:13.406Z,18.96
2024-05-09T10:29:18.392Z,18.96
2024-05-09T10:30:29.853Z,18.99
2024-05-09T10:31:40.991Z,18.98
2024-05-09T10:32:44.873Z,18.99
2024-05-09T10:33:48.945Z,18.97
2024-05-09T10:35:13.203Z,19.01
2024-05-09T10:36:21.730Z,18.91
2024-05-09T10:37:24.670Z,19.05
2024-05-09T10:38:26.543Z,19.14
2024-05-09T10:39:35.119Z,19.18
2024-05-09T10:40:38.038Z,19.20
2024-05-09T10:41:40.190Z,19.32
2024-05-09T10:42:42.073Z,19.38
2024-05-09T10:43:44.055Z,19.45
2024-05-09T10:44:47.105Z,19.53
2024-05-09T10:45:49.366Z,19.64
2024-05-09T10:46:51.347Z,19.71
2024-05-09T10:47:53.309Z,19.70
2024-05-09T10:48:55.197Z,19.70
2024-05-09T10:49:57.196Z,19.77
2024-05-09T10:50:59.013Z,19.79
2024-05-09T10:52:03.689Z,19.82
2024-05-09T10:53:05.509Z,19.86
2024-05-09T10:54:07.813Z,19.81
2024-05-09T10:55:09.546Z,19.81
2024-05-09T10:56:13.604Z,19.81
2024-05-09T10:57:15.431Z,19.85
2024-05-09T10:58:17.859Z,19.88
2024-05-09T10:59:19.654Z,19.83
2024-05-09T11:00:27.695Z,19.71
2024-05-09T11:01:35.475Z,19.80
2024-05-09T11:02:37.331Z,19.72
2024-05-09T11:03:39.978Z,19.59
2024-05-09T11:04:42.139Z,19.61
2024-05-09T11:05:44.346Z,19.55
2024-05-09T11:06:47.190Z,19.51
2024-05-09T11:07:49.043Z,19.47
2024-05-09T11:08:51.335Z,19.65
2024-05-09T11:09:53.237Z,19.70
2024-05-09T11:10:56.182Z,19.83
2024-05-09T11:11:58.135Z,19.86
2024-05-09T11:12:59.947Z,19.84
2024-05-09T11:14:14.141Z,19.90
2024-05-09T11:15:17.245Z,19.90
2024-05-09T11:16:20.896Z,19.87
2024-05-09T11:17:23.148Z,19.83
2024-05-09T11:18:28.185Z,19.83
2024-05-09T11:19:38.558Z,19.78
2024-05-09T11:20:40.434Z,19.69
2024-05-09T11:21:51.263Z,19.56
2024-05-09T11:22:53.018Z,19.53
2024-05-09T11:23:55.023Z,19.55
2024-05-09T11:24:56.902Z,19.58
2024-05-09T11:25:59.167Z,19.66
2024-05-09T11:27:05.191Z,19.80
2024-05-09T11:28:07.268Z,19.77
2024-05-09T11:29:09.016Z,19.74
2024-05-09T11:30:26.649Z,19.72
2024-05-09T11:31:35.095Z,19.66
2024-05-09T11:32:37.558Z,19.62
2024-05-09T11:33:47.682Z,19.62
2024-05-09T11:34:49.503Z,19.58
2024-05-09T11:35:51.354Z,19.61
2024-05-09T11:36:53.282Z,19.76
2024-05-09T11:37:55.161Z,19.80
2024-05-09T11:38:56.883Z,19.96
2024-05-09T11:39:58.638Z,19.99
2024-05-09T11:41:00.402Z,19.95
2024-05-09T11:42:02.439Z,20.02
2024-05-09T11:43:05.886Z,20.03
2024-05-09T11:44:07.651Z,20.20
2024-05-09T11:45:09.345Z,20.28
2024-05-09T11:46:11.197Z,20.33
2024-05-09T11:47:13.098Z,20.35
2024-05-09T11:48:15.122Z,20.42
2024-05-09T11:49:17.190Z,20.55
2024-05-09T11:50:27.047Z,20.61
2024-05-09T11:51:32.052Z,20.66
2024-05-09T11:53:35.388Z,20.49
2024-05-09T11:55:38.889Z,20.59
2024-05-09T11:56:40.612Z,20.60
2024-05-09T11:57:42.424Z,20.60
2024-05-09T11:58:44.205Z,20.64
2024-05-09T11:59:45.914Z,20.69
2024-05-09T12:00:47.772Z,20.61
2024-05-09T12:01:49.802Z,20.59
2024-05-09T12:02:52.669Z,20.56
2024-05-09T12:03:54.989Z,20.60
2024-05-09T12:04:56.874Z,20.48
2024-05-09T12:05:58.798Z,20.60
2024-05-09T12:07:00.808Z,20.72
2024-05-09T12:08:02.644Z,20.84
2024-05-09T12:09:04.568Z,20.85
2024-05-09T12:10:11.664Z,20.55
2024-05-09T12:11:16.638Z,20.51
2024-05-09T12:12:18.619Z,20.29
2024-05-09T12:13:20.598Z,20.23
2024-05-09T12:14:22.362Z,20.18
2024-05-09T12:15:24.090Z,20.34
2024-05-09T12:16:26.107Z,20.38
2024-05-09T12:17:28.228Z,20.47
2024-05-09T12:18:30.354Z,20.52
2024-05-09T12:19:32.567Z,20.62
2024-05-09T12:20:37.857Z,20.75
2024-05-09T12:21:41.563Z,20.78
2024-05-09T12:22:43.297Z,20.80
2024-05-09T12:23:45.036Z,20.60
2024-05-09T12:24:46.771Z,20.60
2024-05-09T12:25:48.499Z,20.73
2024-05-09T12:26:50.393Z,20.85
2024-05-09T12:27:52.291Z,21.05
2024-05-09T12:28:54.047Z,21.11
2024-05-09T12:29:55.725Z,20.88
2024-05-09T12:30:57.475Z,20.90
2024-05-09T12:31:59.219Z,21.05
2024-05-09T12:33:01.111Z,21.04
2024-05-09T12:34:02.979Z,20.94
2024-05-09T12:35:04.926Z,21.03
2024-05-09T12:36:07.048Z,21.10
2024-05-09T12:37:08.781Z,21.10
2024-05-09T12:38:10.484Z,21.14
2024-05-09T12:39:12.206Z,21.27
2024-05-09T12:40:22.491Z,21.32
2024-05-09T12:41:28.417Z,21.44
2024-05-09T12:42:32.519Z,21.47
2024-05-09T12:43:35.382Z,21.52
2024-05-09T12:44:37.088Z,21.53
2024-05-09T12:45:39.900Z,21.27
2024-05-09T12:46:41.905Z,21.12
2024-05-09T12:47:43.670Z,20.82
2024-05-09T12:48:45.694Z,20.99
2024-05-09T12:49:47.873Z,21.15
2024-05-09T12:50:49.754Z,21.31
2024-05-09T12:51:51.505Z,21.52
2024-05-09T12:52:53.192Z,21.61
2024-05-09T12:53:54.879Z,21.57
2024-05-09T12:54:56.630Z,21.60
2024-05-09T12:56:02.228Z,21.57
2024-05-09T12:57:05.426Z,21.46
2024-05-09T12:58:07.390Z,21.50
2024-05-09T12:59:09.304Z,21.62
2024-05-09T13:00:20.608Z,21.67
2024-05-09T13:01:29.380Z,21.66
2024-05-09T13:02:31.297Z,21.43
2024-05-09T13:03:33.435Z,21.27
2024-05-09T13:04:35.481Z,21.24
2024-05-09T13:05:37.394Z,21.10
2024-05-09T13:06:39.214Z,21.23
2024-05-09T13:07:41.330Z,21.09
2024-05-09T13:08:43.041Z,21.11
2024-05-09T13:09:44.842Z,21.28
2024-05-09T13:10:46.841Z,21.23
2024-05-09T13:11:48.638Z,21.46
2024-05-09T13:12:50.428Z,21.40
2024-05-09T13:13:52.159Z,21.17
2024-05-09T13:14:53.850Z,21.07
2024-05-09T13:15:55.609Z,21.03
2024-05-09T13:16:57.365Z,21.07
2024-05-09T13:18:01.959Z,21.06
2024-05-09T13:19:05.077Z,21.22
2024-05-09T13:20:11.863Z,21.37
2024-05-09T13:21:16.750Z,21.41
2024-05-09T13:22:18.491Z,21.52
2024-05-09T13:23:20.227Z,21.59
2024-05-09T13:24:21.938Z,21.63
2024-05-09T13:25:23.987Z,21.66
2024-05-09T13:26:25.722Z,21.69
2024-05-09T13:27:27.427Z,21.77
2024-05-09T13:28:31.763Z,21.82
2024-05-09T13:29:33.517Z,21.94
2024-05-09T13:30:40.294Z,21.88
2024-05-09T13:31:43.827Z,21.97
2024-05-09T13:32:45.670Z,21.95
2024-05-09T13:33:47.730Z,22.10
2024-05-09T13:34:49.670Z,22.15
2024-05-09T13:35:51.460Z,22.24
2024-05-09T13:36:53.509Z,22.37
2024-05-09T13:37:55.883Z,22.45
2024-05-09T13:38:57.695Z,22.51
2024-05-09T13:40:03.353Z,22.57
2024-05-09T13:41:05.990Z,22.53
2024-05-09T13:42:07.736Z,22.44
2024-05-09T13:43:09.580Z,22.49
2024-05-09T13:44:11.677Z,22.48
2024-05-09T13:45:13.418Z,22.51